AAL49 KSAV-KFLL
Flight info
| Callsign | AAL49 |
|---|---|
| Flight time | 1h 13m |
| Altitude | 31000 |
| Route | GIPPL WOPNR Q93 PRMUS CUUDA3 |
| Aircraft | B737/M-SDE2E3FGHIRWXY/LB1 |
Departure
| Time | 2026-05-04 00:03 |
|---|---|
| Airport | Savannah Hilton Head International Airport (KSAV) |
Arrival
| Time | 2026-05-04 01:16 |
|---|---|
| Airport | Fort Lauderdale Hollywood International Airport (KFLL) |
| Time | Latitude | Longitude | Altitude | Speed | Heading |
|---|---|---|---|---|---|
| 2026-05-03 23:43 | 32.13517 | -81.20885 | 37 ft | 0 kts | 360° |
| 2026-05-03 23:55 | 32.13504 | -81.20888 | 35 ft | 3 kts | 64° |
| 2026-05-03 23:55 | 32.13502 | -81.20895 | 36 ft | 0 kts | 79° |
| 2026-05-03 23:55 | 32.13482 | -81.20853 | 37 ft | 8 kts | 134° |
| 2026-05-03 23:56 | 32.13437 | -81.20821 | 37 ft | 10 kts | 165° |
| 2026-05-03 23:56 | 32.13351 | -81.20815 | 40 ft | 13 kts | 181° |
| 2026-05-03 23:56 | 32.13264 | -81.20819 | 42 ft | 12 kts | 181° |
| 2026-05-03 23:56 | 32.13186 | -81.20820 | 44 ft | 13 kts | 180° |
| 2026-05-03 23:57 | 32.13097 | -81.20821 | 45 ft | 12 kts | 184° |
| 2026-05-03 23:57 | 32.13044 | -81.20865 | 44 ft | 9 kts | 252° |
| 2026-05-03 23:57 | 32.13038 | -81.20939 | 47 ft | 10 kts | 268° |
| 2026-05-03 23:57 | 32.13039 | -81.21034 | 45 ft | 13 kts | 272° |
| 2026-05-03 23:58 | 32.13043 | -81.21149 | 41 ft | 15 kts | 270° |
| 2026-05-03 23:58 | 32.13044 | -81.21270 | 40 ft | 15 kts | 270° |
| 2026-05-03 23:58 | 32.13044 | -81.21406 | 40 ft | 17 kts | 271° |
| 2026-05-03 23:58 | 32.13046 | -81.21541 | 39 ft | 16 kts | 271° |
| 2026-05-03 23:59 | 32.13048 | -81.21674 | 36 ft | 16 kts | 269° |
| 2026-05-03 23:59 | 32.13047 | -81.21782 | 35 ft | 5 kts | 269° |
| 2026-05-03 23:59 | 32.13037 | -81.21830 | 36 ft | 8 kts | 239° |
| 2026-05-03 23:59 | 32.12998 | -81.21856 | 36 ft | 0 kts | 188° |
| 2026-05-04 00:01 | 32.12974 | -81.21859 | 34 ft | 15 kts | 185° |
| 2026-05-04 00:01 | 32.12889 | -81.21831 | 35 ft | 5 kts | 125° |
| 2026-05-04 00:01 | 32.12879 | -81.21796 | 36 ft | 0 kts | 95° |
| 2026-05-04 00:02 | 32.12877 | -81.21776 | 33 ft | 19 kts | 95° |
| 2026-05-04 00:02 | 32.12872 | -81.21362 | 44 ft | 71 kts | 91° |
| 2026-05-04 00:02 | 32.12867 | -81.20718 | 51 ft | 83 kts | 92° |
| 2026-05-04 00:02 | 32.12859 | -81.19973 | 51 ft | 100 kts | 88° |
| 2026-05-04 00:03 | 32.12808 | -81.19015 | 70 ft | 141 kts | 100° |
| 2026-05-04 00:03 | 32.12644 | -81.17802 | 474 ft | 157 kts | 109° |
| 2026-05-04 00:03 | 32.12096 | -81.16573 | 760 ft | 186 kts | 138° |
| 2026-05-04 00:03 | 32.10870 | -81.15935 | 1195 ft | 201 kts | 176° |
| 2026-05-04 00:04 | 32.09437 | -81.15901 | 1566 ft | 215 kts | 178° |
| 2026-05-04 00:04 | 32.07913 | -81.15874 | 2024 ft | 222 kts | 180° |
| 2026-05-04 00:04 | 32.06297 | -81.15983 | 2223 ft | 243 kts | 184° |
| 2026-05-04 00:04 | 32.04574 | -81.16175 | 2825 ft | 250 kts | 186° |
| 2026-05-04 00:05 | 32.02810 | -81.16362 | 3399 ft | 261 kts | 186° |
| 2026-05-04 00:05 | 32.00979 | -81.16529 | 4050 ft | 266 kts | 186° |
| 2026-05-04 00:05 | 31.99125 | -81.16678 | 4773 ft | 269 kts | 186° |
| 2026-05-04 00:05 | 31.97246 | -81.16827 | 5430 ft | 273 kts | 188° |
| 2026-05-04 00:06 | 31.95379 | -81.17116 | 6084 ft | 276 kts | 191° |
| 2026-05-04 00:06 | 31.93443 | -81.17408 | 6773 ft | 279 kts | 188° |
| 2026-05-04 00:06 | 31.91522 | -81.17617 | 7421 ft | 282 kts | 187° |
| 2026-05-04 00:06 | 31.89547 | -81.17750 | 8098 ft | 285 kts | 185° |
| 2026-05-04 00:07 | 31.87549 | -81.17820 | 8727 ft | 290 kts | 184° |
| 2026-05-04 00:07 | 31.85520 | -81.17845 | 9380 ft | 293 kts | 183° |
| 2026-05-04 00:07 | 31.83468 | -81.17837 | 10037 ft | 296 kts | 183° |
| 2026-05-04 00:07 | 31.81369 | -81.17810 | 10380 ft | 311 kts | 183° |
| 2026-05-04 00:08 | 31.79135 | -81.17768 | 10532 ft | 331 kts | 182° |
| 2026-05-04 00:08 | 31.76767 | -81.17712 | 10680 ft | 350 kts | 182° |
| 2026-05-04 00:08 | 31.74274 | -81.17644 | 10867 ft | 366 kts | 182° |
| 2026-05-04 00:08 | 31.71698 | -81.17566 | 11274 ft | 373 kts | 182° |
| 2026-05-04 00:09 | 31.69092 | -81.17482 | 11863 ft | 375 kts | 182° |
| 2026-05-04 00:09 | 31.66473 | -81.17396 | 12508 ft | 376 kts | 182° |
| 2026-05-04 00:09 | 31.63848 | -81.17311 | 13121 ft | 379 kts | 182° |
| 2026-05-04 00:09 | 31.61204 | -81.17226 | 13716 ft | 382 kts | 182° |
| 2026-05-04 00:10 | 31.58544 | -81.17142 | 14305 ft | 384 kts | 182° |
| 2026-05-04 00:10 | 31.55862 | -81.17057 | 14882 ft | 386 kts | 183° |
| 2026-05-04 00:10 | 31.53170 | -81.16972 | 15462 ft | 388 kts | 183° |
| 2026-05-04 00:10 | 31.50498 | -81.16888 | 16045 ft | 390 kts | 183° |
| 2026-05-04 00:11 | 31.47774 | -81.16802 | 16617 ft | 393 kts | 183° |
| 2026-05-04 00:11 | 31.45036 | -81.16715 | 17207 ft | 394 kts | 183° |
| 2026-05-04 00:11 | 31.42285 | -81.16629 | 17777 ft | 397 kts | 183° |
| 2026-05-04 00:11 | 31.39514 | -81.16543 | 18322 ft | 400 kts | 184° |
| 2026-05-04 00:12 | 31.36724 | -81.16391 | 18807 ft | 404 kts | 181° |
| 2026-05-04 00:12 | 31.33924 | -81.16094 | 19312 ft | 406 kts | 179° |
| 2026-05-04 00:12 | 31.31111 | -81.15737 | 19826 ft | 407 kts | 179° |
| 2026-05-04 00:12 | 31.28282 | -81.15364 | 20325 ft | 409 kts | 179° |
| 2026-05-04 00:13 | 31.25456 | -81.14994 | 20808 ft | 410 kts | 179° |
| 2026-05-04 00:13 | 31.22611 | -81.14631 | 21274 ft | 412 kts | 180° |
| 2026-05-04 00:13 | 31.19754 | -81.14274 | 21711 ft | 413 kts | 180° |
| 2026-05-04 00:13 | 31.16889 | -81.13922 | 22177 ft | 415 kts | 180° |
| 2026-05-04 00:14 | 31.14013 | -81.13572 | 22605 ft | 417 kts | 180° |
| 2026-05-04 00:14 | 31.11122 | -81.13223 | 23008 ft | 419 kts | 181° |
| 2026-05-04 00:14 | 31.08217 | -81.12873 | 23408 ft | 421 kts | 181° |
| 2026-05-04 00:14 | 31.05299 | -81.12521 | 23793 ft | 422 kts | 181° |
| 2026-05-04 00:15 | 31.02362 | -81.12167 | 24122 ft | 424 kts | 181° |
| 2026-05-04 00:15 | 30.99420 | -81.11812 | 24457 ft | 426 kts | 181° |
| 2026-05-04 00:15 | 30.96461 | -81.11456 | 24783 ft | 427 kts | 181° |
| 2026-05-04 00:15 | 30.93536 | -81.11104 | 25077 ft | 429 kts | 181° |
| 2026-05-04 00:16 | 30.90560 | -81.10745 | 25376 ft | 431 kts | 181° |
| 2026-05-04 00:16 | 30.87570 | -81.10386 | 25673 ft | 433 kts | 181° |
| 2026-05-04 00:16 | 30.84562 | -81.10024 | 25975 ft | 434 kts | 181° |
| 2026-05-04 00:16 | 30.81556 | -81.09663 | 26274 ft | 436 kts | 181° |
| 2026-05-04 00:17 | 30.78534 | -81.09300 | 26579 ft | 437 kts | 181° |
| 2026-05-04 00:17 | 30.75500 | -81.08936 | 26849 ft | 439 kts | 181° |
| 2026-05-04 00:17 | 30.72455 | -81.08570 | 27124 ft | 441 kts | 181° |
| 2026-05-04 00:17 | 30.69385 | -81.08202 | 27400 ft | 442 kts | 182° |
| 2026-05-04 00:18 | 30.66319 | -81.07835 | 27676 ft | 443 kts | 182° |
| 2026-05-04 00:18 | 30.63259 | -81.07478 | 27988 ft | 441 kts | 183° |
| 2026-05-04 00:18 | 30.60222 | -81.07411 | 28387 ft | 432 kts | 190° |
| 2026-05-04 00:18 | 30.57230 | -81.07595 | 28804 ft | 429 kts | 191° |
| 2026-05-04 00:19 | 30.54250 | -81.07810 | 29222 ft | 427 kts | 191° |
| 2026-05-04 00:19 | 30.51287 | -81.08025 | 29617 ft | 426 kts | 191° |
| 2026-05-04 00:19 | 30.48331 | -81.08229 | 30018 ft | 425 kts | 191° |
| 2026-05-04 00:19 | 30.45383 | -81.08422 | 30378 ft | 424 kts | 191° |
| 2026-05-04 00:20 | 30.42472 | -81.08604 | 30656 ft | 424 kts | 191° |
| 2026-05-04 00:20 | 30.39496 | -81.08785 | 30965 ft | 423 kts | 191° |
| 2026-05-04 00:20 | 30.36588 | -81.08960 | 31123 ft | 425 kts | 192° |
| 2026-05-04 00:20 | 30.33630 | -81.09137 | 31124 ft | 426 kts | 191° |
| 2026-05-04 00:21 | 30.27723 | -81.09485 | 31118 ft | 421 kts | 192° |
| 2026-05-04 00:21 | 30.21883 | -81.09828 | 31134 ft | 420 kts | 192° |
| 2026-05-04 00:22 | 30.16042 | -81.10176 | 31133 ft | 420 kts | 192° |
| 2026-05-04 00:22 | 30.10198 | -81.10524 | 31131 ft | 420 kts | 192° |
| 2026-05-04 00:23 | 30.04371 | -81.10868 | 31123 ft | 420 kts | 192° |
| 2026-05-04 00:23 | 29.98537 | -81.11214 | 31135 ft | 420 kts | 192° |
| 2026-05-04 00:24 | 29.92729 | -81.11556 | 31134 ft | 421 kts | 192° |
| 2026-05-04 00:24 | 29.86880 | -81.11901 | 31131 ft | 421 kts | 192° |
| 2026-05-04 00:25 | 29.80970 | -81.11743 | 31093 ft | 441 kts | 175° |
| 2026-05-04 00:25 | 29.78032 | -81.10539 | 31150 ft | 453 kts | 167° |
| 2026-05-04 00:25 | 29.75136 | -81.09107 | 31121 ft | 455 kts | 166° |
| 2026-05-04 00:26 | 29.69342 | -81.06165 | 31114 ft | 455 kts | 166° |
| 2026-05-04 00:26 | 29.63535 | -81.03262 | 31111 ft | 455 kts | 167° |
| 2026-05-04 00:27 | 29.57709 | -81.00400 | 31115 ft | 455 kts | 167° |
| 2026-05-04 00:27 | 29.51887 | -80.97560 | 31065 ft | 454 kts | 167° |
| 2026-05-04 00:28 | 29.46073 | -80.94727 | 31099 ft | 453 kts | 167° |
| 2026-05-04 00:28 | 29.40264 | -80.91900 | 31113 ft | 453 kts | 167° |
| 2026-05-04 00:29 | 29.34493 | -80.89094 | 31099 ft | 453 kts | 167° |
| 2026-05-04 00:29 | 29.28692 | -80.86275 | 31101 ft | 453 kts | 167° |
| 2026-05-04 00:30 | 29.22894 | -80.83463 | 31100 ft | 452 kts | 167° |
| 2026-05-04 00:30 | 29.17104 | -80.80656 | 31094 ft | 451 kts | 167° |
| 2026-05-04 00:31 | 29.11316 | -80.77856 | 31099 ft | 451 kts | 167° |
| 2026-05-04 00:31 | 29.05531 | -80.75058 | 31099 ft | 451 kts | 167° |
| 2026-05-04 00:32 | 28.99744 | -80.72263 | 31097 ft | 451 kts | 167° |
| 2026-05-04 00:32 | 28.94926 | -80.69964 | 31096 ft | 450 kts | 168° |
| 2026-05-04 00:33 | 28.85252 | -80.65654 | 31076 ft | 449 kts | 169° |
| 2026-05-04 00:34 | 28.80404 | -80.63508 | 31067 ft | 449 kts | 169° |
| 2026-05-04 00:34 | 28.74584 | -80.60918 | 31068 ft | 450 kts | 169° |
| 2026-05-04 00:35 | 28.68751 | -80.58317 | 31066 ft | 450 kts | 169° |
| 2026-05-04 00:35 | 28.62903 | -80.55711 | 31052 ft | 451 kts | 169° |
| 2026-05-04 00:36 | 28.57059 | -80.53109 | 31015 ft | 451 kts | 169° |
| 2026-05-04 00:36 | 28.51222 | -80.50514 | 31034 ft | 450 kts | 169° |
| 2026-05-04 00:37 | 28.45387 | -80.47924 | 31048 ft | 450 kts | 169° |
| 2026-05-04 00:37 | 28.39553 | -80.45338 | 31047 ft | 450 kts | 169° |
| 2026-05-04 00:38 | 28.33721 | -80.42755 | 31048 ft | 450 kts | 169° |
| 2026-05-04 00:38 | 28.27899 | -80.40179 | 31044 ft | 448 kts | 169° |
| 2026-05-04 00:39 | 28.22124 | -80.37627 | 31047 ft | 448 kts | 169° |
| 2026-05-04 00:39 | 28.16303 | -80.35059 | 31044 ft | 448 kts | 169° |
| 2026-05-04 00:40 | 28.10493 | -80.32497 | 31054 ft | 449 kts | 169° |
| 2026-05-04 00:40 | 28.04646 | -80.30067 | 31065 ft | 445 kts | 171° |
| 2026-05-04 00:41 | 27.98773 | -80.27820 | 31059 ft | 444 kts | 171° |
| 2026-05-04 00:41 | 27.92909 | -80.25568 | 31059 ft | 445 kts | 171° |
| 2026-05-04 00:42 | 27.87044 | -80.23288 | 31064 ft | 446 kts | 171° |
| 2026-05-04 00:42 | 27.81172 | -80.20999 | 31063 ft | 447 kts | 171° |
| 2026-05-04 00:43 | 27.75333 | -80.18724 | 31064 ft | 447 kts | 171° |
| 2026-05-04 00:43 | 27.69448 | -80.16435 | 30925 ft | 449 kts | 171° |
| 2026-05-04 00:43 | 27.66489 | -80.15285 | 30598 ft | 446 kts | 170° |
| 2026-05-04 00:44 | 27.63577 | -80.14149 | 30154 ft | 440 kts | 170° |
| 2026-05-04 00:44 | 27.60703 | -80.13022 | 29647 ft | 436 kts | 169° |
| 2026-05-04 00:44 | 27.57861 | -80.11861 | 29150 ft | 432 kts | 169° |
| 2026-05-04 00:44 | 27.55056 | -80.10693 | 28664 ft | 428 kts | 169° |
| 2026-05-04 00:45 | 27.52279 | -80.09535 | 28201 ft | 423 kts | 169° |
| 2026-05-04 00:45 | 27.49528 | -80.08393 | 27710 ft | 420 kts | 169° |
| 2026-05-04 00:45 | 27.46798 | -80.07267 | 27244 ft | 416 kts | 169° |
| 2026-05-04 00:45 | 27.44092 | -80.06153 | 26780 ft | 413 kts | 169° |
| 2026-05-04 00:46 | 27.41386 | -80.05043 | 26325 ft | 415 kts | 169° |
| 2026-05-04 00:46 | 27.38659 | -80.03928 | 25865 ft | 417 kts | 169° |
| 2026-05-04 00:46 | 27.35921 | -80.02955 | 25386 ft | 409 kts | 173° |
| 2026-05-04 00:46 | 27.33177 | -80.02146 | 24907 ft | 405 kts | 174° |
| 2026-05-04 00:47 | 27.30447 | -80.01362 | 24447 ft | 403 kts | 174° |
| 2026-05-04 00:47 | 27.27796 | -80.00572 | 24235 ft | 394 kts | 174° |
| 2026-05-04 00:47 | 27.25172 | -79.99770 | 23955 ft | 388 kts | 173° |
| 2026-05-04 00:47 | 27.22571 | -79.98882 | 23401 ft | 392 kts | 171° |
| 2026-05-04 00:48 | 27.19977 | -79.97926 | 22861 ft | 392 kts | 171° |
| 2026-05-04 00:48 | 27.17390 | -79.96961 | 22328 ft | 391 kts | 170° |
| 2026-05-04 00:48 | 27.14809 | -79.96007 | 21823 ft | 390 kts | 170° |
| 2026-05-04 00:48 | 27.12236 | -79.95070 | 21310 ft | 388 kts | 170° |
| 2026-05-04 00:49 | 27.09670 | -79.94143 | 20780 ft | 387 kts | 170° |
| 2026-05-04 00:49 | 27.07112 | -79.93222 | 20296 ft | 385 kts | 170° |
| 2026-05-04 00:49 | 27.04569 | -79.92260 | 19809 ft | 386 kts | 168° |
| 2026-05-04 00:49 | 27.02037 | -79.91236 | 19315 ft | 386 kts | 167° |
| 2026-05-04 00:50 | 26.99520 | -79.90200 | 18800 ft | 386 kts | 167° |
| 2026-05-04 00:50 | 26.96996 | -79.89164 | 18284 ft | 386 kts | 167° |
| 2026-05-04 00:50 | 26.94466 | -79.88132 | 17729 ft | 385 kts | 167° |
| 2026-05-04 00:50 | 26.91982 | -79.87125 | 17210 ft | 384 kts | 166° |
| 2026-05-04 00:51 | 26.89476 | -79.86113 | 16705 ft | 382 kts | 166° |
| 2026-05-04 00:51 | 26.86983 | -79.85109 | 16210 ft | 380 kts | 166° |
| 2026-05-04 00:51 | 26.84495 | -79.84107 | 15720 ft | 378 kts | 166° |
| 2026-05-04 00:51 | 26.82022 | -79.83112 | 15240 ft | 377 kts | 166° |
| 2026-05-04 00:52 | 26.79563 | -79.82124 | 14797 ft | 374 kts | 166° |
| 2026-05-04 00:52 | 26.77130 | -79.81145 | 14433 ft | 369 kts | 165° |
| 2026-05-04 00:52 | 26.74731 | -79.80180 | 14064 ft | 365 kts | 165° |
| 2026-05-04 00:52 | 26.72357 | -79.79227 | 13656 ft | 357 kts | 166° |
| 2026-05-04 00:53 | 26.69992 | -79.78745 | 13255 ft | 336 kts | 187° |
| 2026-05-04 00:53 | 26.67742 | -79.79147 | 12937 ft | 320 kts | 201° |
| 2026-05-04 00:53 | 26.65679 | -79.79954 | 12629 ft | 311 kts | 205° |
| 2026-05-04 00:53 | 26.63671 | -79.80814 | 12302 ft | 309 kts | 205° |
| 2026-05-04 00:54 | 26.61659 | -79.81672 | 11986 ft | 310 kts | 205° |
| 2026-05-04 00:54 | 26.59636 | -79.82514 | 11660 ft | 311 kts | 204° |
| 2026-05-04 00:54 | 26.57601 | -79.83349 | 11350 ft | 310 kts | 204° |
| 2026-05-04 00:54 | 26.55597 | -79.84165 | 11018 ft | 302 kts | 204° |
| 2026-05-04 00:55 | 26.53664 | -79.85011 | 10675 ft | 294 kts | 206° |
| 2026-05-04 00:55 | 26.51820 | -79.85884 | 10369 ft | 288 kts | 207° |
| 2026-05-04 00:55 | 26.49997 | -79.86758 | 10057 ft | 285 kts | 207° |
| 2026-05-04 00:55 | 26.48191 | -79.87620 | 9959 ft | 275 kts | 207° |
| 2026-05-04 00:56 | 26.46441 | -79.88450 | 9465 ft | 277 kts | 207° |
| 2026-05-04 00:56 | 26.44691 | -79.89277 | 9126 ft | 271 kts | 207° |
| 2026-05-04 00:56 | 26.42957 | -79.90093 | 8825 ft | 269 kts | 207° |
| 2026-05-04 00:56 | 26.41233 | -79.90903 | 8508 ft | 269 kts | 207° |
| 2026-05-04 00:57 | 26.39516 | -79.91709 | 8212 ft | 268 kts | 207° |
| 2026-05-04 00:57 | 26.37817 | -79.92519 | 8043 ft | 262 kts | 209° |
| 2026-05-04 00:57 | 26.36225 | -79.93491 | 8011 ft | 258 kts | 213° |
| 2026-05-04 00:57 | 26.34706 | -79.94508 | 7817 ft | 254 kts | 214° |
| 2026-05-04 00:58 | 26.33213 | -79.95510 | 7572 ft | 248 kts | 214° |
| 2026-05-04 00:58 | 26.31733 | -79.96490 | 7200 ft | 246 kts | 212° |
| 2026-05-04 00:58 | 26.30258 | -79.97435 | 6822 ft | 243 kts | 213° |
| 2026-05-04 00:58 | 26.28803 | -79.98372 | 6472 ft | 241 kts | 214° |
| 2026-05-04 00:59 | 26.27363 | -79.99312 | 6104 ft | 239 kts | 213° |
| 2026-05-04 00:59 | 26.25928 | -80.00239 | 5729 ft | 237 kts | 213° |
| 2026-05-04 00:59 | 26.24499 | -80.01156 | 5366 ft | 237 kts | 213° |
| 2026-05-04 00:59 | 26.23086 | -80.02063 | 5051 ft | 238 kts | 213° |
| 2026-05-04 01:00 | 26.21634 | -80.02997 | 5030 ft | 244 kts | 212° |
| 2026-05-04 01:00 | 26.20171 | -80.03935 | 4998 ft | 240 kts | 212° |
| 2026-05-04 01:00 | 26.18752 | -80.04877 | 4992 ft | 235 kts | 219° |
| 2026-05-04 01:00 | 26.17757 | -80.06285 | 5014 ft | 234 kts | 244° |
| 2026-05-04 01:01 | 26.17163 | -80.07988 | 5011 ft | 237 kts | 252° |
| 2026-05-04 01:01 | 26.16660 | -80.09734 | 5003 ft | 237 kts | 252° |
| 2026-05-04 01:01 | 26.16153 | -80.11477 | 5011 ft | 237 kts | 252° |
| 2026-05-04 01:01 | 26.15638 | -80.13220 | 5005 ft | 237 kts | 252° |
| 2026-05-04 01:02 | 26.15125 | -80.14959 | 5004 ft | 236 kts | 254° |
| 2026-05-04 01:02 | 26.14948 | -80.16766 | 5018 ft | 236 kts | 270° |
| 2026-05-04 01:02 | 26.14981 | -80.18594 | 5007 ft | 237 kts | 270° |
| 2026-05-04 01:02 | 26.15008 | -80.20424 | 5009 ft | 236 kts | 270° |
| 2026-05-04 01:03 | 26.15029 | -80.22255 | 5012 ft | 237 kts | 270° |
| 2026-05-04 01:03 | 26.15046 | -80.24090 | 5007 ft | 237 kts | 269° |
| 2026-05-04 01:03 | 26.15060 | -80.25918 | 5008 ft | 237 kts | 269° |
| 2026-05-04 01:03 | 26.15070 | -80.27754 | 5004 ft | 237 kts | 269° |
| 2026-05-04 01:04 | 26.15080 | -80.29579 | 5008 ft | 236 kts | 269° |
| 2026-05-04 01:04 | 26.15088 | -80.31409 | 5004 ft | 236 kts | 269° |
| 2026-05-04 01:04 | 26.15102 | -80.33238 | 5009 ft | 236 kts | 270° |
| 2026-05-04 01:04 | 26.15121 | -80.35065 | 5000 ft | 236 kts | 270° |
| 2026-05-04 01:05 | 26.15140 | -80.36892 | 4997 ft | 236 kts | 270° |
| 2026-05-04 01:05 | 26.15160 | -80.38717 | 5000 ft | 235 kts | 269° |
| 2026-05-04 01:05 | 26.15181 | -80.40537 | 4991 ft | 235 kts | 270° |
| 2026-05-04 01:05 | 26.15202 | -80.42356 | 5000 ft | 235 kts | 270° |
| 2026-05-04 01:06 | 26.15226 | -80.44168 | 4990 ft | 235 kts | 270° |
| 2026-05-04 01:06 | 26.15251 | -80.45990 | 4988 ft | 235 kts | 270° |
| 2026-05-04 01:06 | 26.15275 | -80.47808 | 4992 ft | 235 kts | 270° |
| 2026-05-04 01:06 | 26.15299 | -80.49626 | 4995 ft | 235 kts | 270° |
| 2026-05-04 01:07 | 26.15325 | -80.51411 | 4986 ft | 226 kts | 270° |
| 2026-05-04 01:07 | 26.15351 | -80.53123 | 4989 ft | 217 kts | 270° |
| 2026-05-04 01:07 | 26.15371 | -80.54799 | 4986 ft | 218 kts | 270° |
| 2026-05-04 01:07 | 26.15362 | -80.56488 | 4993 ft | 218 kts | 265° |
| 2026-05-04 01:08 | 26.14854 | -80.58051 | 4981 ft | 217 kts | 233° |
| 2026-05-04 01:08 | 26.13650 | -80.58992 | 4983 ft | 215 kts | 198° |
| 2026-05-04 01:08 | 26.12160 | -80.58992 | 4980 ft | 221 kts | 164° |
| 2026-05-04 01:08 | 26.10854 | -80.58070 | 5005 ft | 226 kts | 140° |
| 2026-05-04 01:09 | 26.09714 | -80.56847 | 4988 ft | 229 kts | 137° |
| 2026-05-04 01:09 | 26.08587 | -80.55603 | 4978 ft | 225 kts | 135° |
| 2026-05-04 01:09 | 26.07848 | -80.54162 | 4962 ft | 215 kts | 97° |
| 2026-05-04 01:09 | 26.07906 | -80.52533 | 5002 ft | 213 kts | 89° |
| 2026-05-04 01:10 | 26.07914 | -80.50881 | 4993 ft | 212 kts | 92° |
| 2026-05-04 01:10 | 26.07895 | -80.49256 | 4977 ft | 206 kts | 92° |
| 2026-05-04 01:10 | 26.07879 | -80.47692 | 4974 ft | 198 kts | 92° |
| 2026-05-04 01:10 | 26.07881 | -80.46175 | 4992 ft | 196 kts | 91° |
| 2026-05-04 01:11 | 26.07881 | -80.44615 | 4771 ft | 206 kts | 91° |
| 2026-05-04 01:11 | 26.07875 | -80.43028 | 4514 ft | 205 kts | 91° |
| 2026-05-04 01:11 | 26.07864 | -80.41456 | 4244 ft | 202 kts | 91° |
| 2026-05-04 01:11 | 26.07852 | -80.39901 | 3997 ft | 199 kts | 91° |
| 2026-05-04 01:12 | 26.07840 | -80.38371 | 3736 ft | 196 kts | 91° |
| 2026-05-04 01:12 | 26.07829 | -80.36886 | 3488 ft | 188 kts | 91° |
| 2026-05-04 01:12 | 26.07820 | -80.35446 | 3263 ft | 186 kts | 91° |
| 2026-05-04 01:12 | 26.07808 | -80.33997 | 3014 ft | 188 kts | 91° |
| 2026-05-04 01:13 | 26.07798 | -80.32544 | 2779 ft | 187 kts | 90° |
| 2026-05-04 01:13 | 26.07789 | -80.31108 | 2531 ft | 184 kts | 90° |
| 2026-05-04 01:13 | 26.07779 | -80.29717 | 2294 ft | 180 kts | 90° |
| 2026-05-04 01:13 | 26.07769 | -80.28330 | 2078 ft | 179 kts | 90° |
| 2026-05-04 01:14 | 26.07760 | -80.26959 | 1837 ft | 178 kts | 89° |
| 2026-05-04 01:14 | 26.07751 | -80.25595 | 1606 ft | 176 kts | 89° |
| 2026-05-04 01:14 | 26.07742 | -80.24238 | 1370 ft | 175 kts | 89° |
| 2026-05-04 01:14 | 26.07729 | -80.22861 | 1075 ft | 180 kts | 89° |
| 2026-05-04 01:15 | 26.07725 | -80.21464 | 855 ft | 178 kts | 87° |
| 2026-05-04 01:15 | 26.07731 | -80.20103 | 662 ft | 175 kts | 89° |
| 2026-05-04 01:15 | 26.07717 | -80.18763 | 408 ft | 172 kts | 88° |
| 2026-05-04 01:15 | 26.07707 | -80.17461 | 226 ft | 166 kts | 89° |
| 2026-05-04 01:16 | 26.07697 | -80.16219 | 41 ft | 151 kts | 89° |
| 2026-05-04 01:16 | 26.07689 | -80.15232 | 16 ft | 91 kts | 90° |
| 2026-05-04 01:16 | 26.07673 | -80.14741 | 24 ft | 47 kts | 100° |
| 2026-05-04 01:16 | 26.07598 | -80.14606 | 25 ft | 0 kts | 144° |
| 2026-05-04 01:17 | 26.07594 | -80.14603 | 24 ft | 5 kts | 146° |
| 2026-05-04 01:17 | 26.07540 | -80.14578 | 27 ft | 9 kts | 159° |